Time;durP1;ratioP1;P1;durP2;ratioP2;P2;SDS_P1;SDS_P2;PMS_P1;PMS_P2;Temp;Humidity;BMP_temperature;BMP_pressure;BME280_temperature;BME280_humidity;BME280_pressure;Samples;Min_cycle;Max_cycle;Signal;HPM_P1;HPM_P2
2022/06/23 00:01:00;;;;;;;;;22.67;20.67;;;;;38.83;26.64;100530.53;4918853;28;45374;-77
2022/06/23 00:03:30;;;;;;;;;23.33;22.67;;;;;38.82;26.41;100539.91;4910026;28;45558;-77
2022/06/23 00:05:59;;;;;;;;;18.67;17.67;;;;;38.70;26.93;100533.72;4900937;29;45410;-77
2022/06/23 00:08:25;;;;;;;;;24.00;22.67;;;;;38.71;26.56;100529.06;4900855;29;45685;-77
2022/06/23 00:11:00;;;;;;;;;22.67;21.67;;;;;38.56;27.22;100526.81;4900863;29;45311;-77
2022/06/23 00:13:37;;;;;;;;;25.00;22.33;;;;;38.67;27.29;100531.25;4900971;28;45439;-78
2022/06/23 00:16:05;;;;;;;;;24.67;23.67;;;;;38.75;27.48;100520.25;4900800;29;45553;-78
2022/06/23 00:18:36;;;;;;;;;22.67;21.00;;;;;38.76;26.55;100538.66;4900570;28;45256;-78
2022/06/23 00:21:09;;;;;;;;;22.00;20.33;;;;;38.76;26.85;100529.44;4899470;29;45451;-78
2022/06/23 00:23:41;;;;;;;;;22.33;22.33;;;;;38.76;27.11;100516.47;4900664;29;45400;-78
2022/06/23 00:26:26;;;;;;;;;22.33;21.33;;;;;38.85;27.59;100525.72;4900469;28;45351;-78
2022/06/23 00:29:05;;;;;;;;;23.00;21.67;;;;;38.88;27.03;100528.16;4900769;28;45219;-77
2022/06/23 00:31:43;;;;;;;;;22.33;22.00;;;;;38.78;26.58;100513.53;4900107;29;45454;-77
2022/06/23 00:34:14;;;;;;;;;20.67;19.67;;;;;38.91;27.24;100527.81;4899429;28;45569;-77
2022/06/23 00:36:48;;;;;;;;;22.00;21.00;;;;;38.84;27.03;100515.63;4900387;29;46530;-77
2022/06/23 00:39:35;;;;;;;;;24.33;24.33;;;;;38.82;26.79;100502.97;4915210;28;45495;-77
2022/06/23 00:42:05;;;;;;;;;23.33;23.33;;;;;38.86;27.07;100521.91;4900307;29;45515;-77
2022/06/23 00:44:42;;;;;;;;;24.67;22.67;;;;;38.81;27.21;100518.75;4900439;29;45432;-77
2022/06/23 00:47:16;;;;;;;;;22.00;21.33;;;;;38.57;26.94;100499.97;4900320;29;46386;-77
2022/06/23 00:49:47;;;;;;;;;21.67;21.67;;;;;38.53;27.53;100513.28;4900176;29;45414;-77
2022/06/23 00:52:37;;;;;;;;;20.00;20.00;;;;;38.64;26.95;100508.50;4900373;28;45419;-77
2022/06/23 00:55:13;;;;;;;;;21.67;21.67;;;;;38.61;27.31;100502.25;4900225;29;45357;-77
2022/06/23 00:57:47;;;;;;;;;22.67;22.67;;;;;38.54;27.47;100487.31;4899994;28;46197;-76
2022/06/23 01:00:22;;;;;;;;;21.33;19.33;;;;;38.71;27.01;100499.44;4900026;29;45256;-76
2022/06/23 01:03:41;;;;;;;;;22.33;21.33;;;;;38.70;26.96;100489.38;4900020;28;45477;-76
2022/06/23 01:06:35;;;;;;;;;26.00;23.00;;;;;38.75;26.81;100505.53;4916902;28;45351;-77
2022/06/23 01:09:36;;;;;;;;;24.00;24.00;;;;;38.69;27.78;100493.16;4909271;28;45443;-76
2022/06/23 01:12:06;;;;;;;;;24.00;24.00;;;;;38.58;27.66;100485.06;4841509;29;45442;-77
2022/06/23 01:14:50;;;;;;;;;24.00;23.33;;;;;38.72;27.41;100492.88;4826105;29;45546;-76
2022/06/23 01:17:18;;;;;;;;;22.33;22.33;;;;;38.77;27.52;100495.13;4841707;29;45372;-77
2022/06/23 01:19:53;;;;;;;;;23.33;22.67;;;;;38.80;27.58;100503.13;4841153;29;46356;-76
2022/06/23 01:22:33;;;;;;;;;24.00;24.00;;;;;38.84;27.50;100501.78;4841538;29;45472;-76
2022/06/23 01:25:23;;;;;;;;;26.67;25.00;;;;;38.83;27.03;100499.16;4841270;29;45394;-77
2022/06/23 01:28:07;;;;;;;;;27.00;25.33;;;;;38.83;27.66;100500.03;4841309;29;45566;-77
2022/06/23 01:30:38;;;;;;;;;20.33;20.00;;;;;38.90;27.58;100495.56;4840931;29;48821;-77
2022/06/23 01:33:18;;;;;;;;;25.00;23.33;;;;;38.76;27.41;100482.31;4841131;29;45530;-77
2022/06/23 01:35:55;;;;;;;;;25.33;25.00;;;;;38.78;27.36;100494.13;4841143;29;45518;-77
2022/06/23 01:38:27;;;;;;;;;24.00;24.00;;;;;38.74;27.21;100501.88;4840961;29;45398;-77
2022/06/23 01:40:58;;;;;;;;;22.67;21.33;;;;;38.70;27.13;100491.28;4840891;29;46886;-77
2022/06/23 01:43:38;;;;;;;;;25.67;22.67;;;;;38.60;26.99;100480.25;4825566;29;45366;-77
2022/06/23 01:46:30;;;;;;;;;23.67;22.00;;;;;38.63;26.93;100488.22;4862131;29;45615;-77
2022/06/23 01:49:26;;;;;;;;;23.00;21.33;;;;;38.67;26.91;100492.44;4901272;28;45499;-77
2022/06/23 01:51:54;;;;;;;;;25.33;23.00;;;;;38.57;27.00;100483.34;4898770;29;46223;-77
2022/06/23 01:54:20;;;;;;;;;22.67;22.67;;;;;38.72;27.03;100487.31;4898914;29;45459;-77
2022/06/23 01:56:54;;;;;;;;;28.67;25.00;;;;;38.80;27.22;100496.72;4899198;29;45383;-77
2022/06/23 01:59:30;;;;;;;;;25.00;22.33;;;;;38.71;27.22;100495.81;4899434;28;45646;-77
2022/06/23 02:02:10;;;;;;;;;22.67;22.67;;;;;38.68;27.61;100490.56;4899207;28;45770;-77
2022/06/23 02:04:38;;;;;;;;;28.33;25.67;;;;;38.67;26.91;100497.97;4898986;29;45471;-77
2022/06/23 02:07:15;;;;;;;;;28.67;27.33;;;;;38.54;27.38;100475.31;4913583;28;45420;-77
2022/06/23 02:10:09;;;;;;;;;21.67;21.33;;;;;38.70;27.55;100489.38;4898921;29;45304;-76
2022/06/23 02:12:58;;;;;;;;;24.67;23.67;;;;;38.75;27.15;100486.13;4898095;29;45582;-77
2022/06/23 02:15:34;;;;;;;;;22.33;22.33;;;;;38.76;27.25;100487.84;4899230;29;45973;-76
2022/06/23 02:18:13;;;;;;;;;26.00;25.00;;;;;38.78;27.59;100489.44;4899383;28;45369;-76
2022/06/23 02:20:46;;;;;;;;;27.00;25.00;;;;;38.73;27.84;100477.09;4898945;29;45382;-76
2022/06/23 02:23:37;;;;;;;;;25.00;22.67;;;;;38.83;27.18;100488.06;4898581;28;45423;-76
2022/06/23 02:26:11;;;;;;;;;25.67;24.33;;;;;38.83;27.81;100486.16;4899041;28;45315;-76
2022/06/23 02:29:01;;;;;;;;;23.00;23.00;;;;;38.83;28.07;100476.97;4899042;28;45350;-77
2022/06/23 02:31:39;;;;;;;;;19.67;19.67;;;;;38.75;27.67;100488.91;4898929;28;46813;-77
2022/06/23 02:34:10;;;;;;;;;18.33;18.33;;;;;38.71;27.75;100485.56;4898689;28;45503;-77
2022/06/23 02:36:41;;;;;;;;;14.33;13.33;;;;;38.69;27.85;100495.06;4898411;29;45376;-77
2022/06/23 02:39:17;;;;;;;;;11.00;10.33;;;;;38.49;28.18;100478.59;4899118;29;45513;-77
2022/06/23 02:41:51;;;;;;;;;11.00;10.00;;;;;38.46;28.01;100484.47;4898832;29;45354;-77
2022/06/23 02:44:19;;;;;;;;;12.00;10.00;;;;;38.56;27.79;100492.69;4898828;28;45487;-76
2022/06/23 02:47:11;;;;;;;;;8.00;7.00;;;;;38.55;27.79;100490.94;4913185;28;45574;-77
2022/06/23 02:50:05;;;;;;;;;7.33;5.67;;;;;38.55;28.04;100491.81;4898879;29;45258;-77
2022/06/23 02:52:30;;;;;;;;;7.00;7.00;;;;;38.46;27.85;100490.00;4898587;28;45630;-77
2022/06/23 02:55:43;;;;;;;;;6.33;6.33;;;;;38.36;28.05;100492.00;4898587;29;45497;-77
2022/06/23 02:58:25;;;;;;;;;5.67;5.33;;;;;38.25;27.59;100474.56;4898643;28;45393;-77
2022/06/23 03:01:00;;;;;;;;;6.00;5.00;;;;;38.18;27.88;100490.03;4898787;28;45423;-76
2022/06/23 03:03:39;;;;;;;;;5.33;4.00;;;;;38.25;27.54;100496.72;4898825;29;45632;-77
2022/06/23 03:06:08;;;;;;;;;4.67;4.33;;;;;38.25;27.50;100509.72;4898423;29;46258;-77
2022/06/23 03:08:46;;;;;;;;;6.00;5.33;;;;;38.22;27.89;100498.97;4898518;29;45327;-76
2022/06/23 03:11:53;;;;;;;;;5.00;5.00;;;;;38.04;27.67;100498.91;4898549;28;45470;-77
2022/06/23 03:14:31;;;;;;;;;5.67;5.67;;;;;38.12;28.22;100493.47;4898616;28;45319;-77
2022/06/23 03:17:13;;;;;;;;;5.00;5.00;;;;;38.05;27.87;100484.91;4898269;28;45485;-76
2022/06/23 03:19:53;;;;;;;;;5.00;4.00;;;;;37.92;27.36;100488.06;4897935;28;45660;-76
2022/06/23 03:22:30;;;;;;;;;5.00;4.00;;;;;37.90;27.55;100500.31;4898448;28;45381;-76
2022/06/23 03:25:21;;;;;;;;;4.00;4.00;;;;;37.86;27.50;100504.41;4901188;28;45558;-77
2022/06/23 03:27:53;;;;;;;;;6.00;5.00;;;;;37.88;28.05;100519.00;4901555;28;46693;-76
2022/06/23 03:30:30;;;;;;;;;6.00;5.00;;;;;37.75;27.94;100502.72;4901590;29;45458;-76
2022/06/23 03:33:14;;;;;;;;;3.67;3.67;;;;;37.84;27.60;100517.56;4901539;28;45394;-76
2022/06/23 03:35:47;;;;;;;;;3.00;3.00;;;;;37.82;27.57;100514.94;4901009;28;45441;-76
2022/06/23 03:41:36;;;;;;;;;4.00;4.00;;;;;37.74;27.53;100510.16;4913581;28;45273;-77
2022/06/23 03:41:36;;;;;;;;;4.00;4.00;;;;;37.78;27.50;100512.59;4909837;28;46386;-76
2022/06/23 03:44:12;;;;;;;;;4.00;4.00;;;;;38.03;27.38;100533.16;4901707;28;45363;-77
2022/06/23 03:47:01;;;;;;;;;3.00;3.00;;;;;37.90;27.08;100537.16;4901606;28;45367;-77
2022/06/23 03:49:33;;;;;;;;;3.33;3.33;;;;;37.82;27.13;100537.09;4900427;28;46382;-77
2022/06/23 03:52:02;;;;;;;;;4.00;4.00;;;;;37.62;27.96;100539.03;4901128;28;45437;-77
2022/06/23 03:54:50;;;;;;;;;3.00;3.00;;;;;37.55;27.38;100546.19;4900964;28;45503;-77
2022/06/23 03:57:24;;;;;;;;;5.67;3.67;;;;;37.58;27.39;100530.19;4901212;29;45553;-77
2022/06/23 03:59:55;;;;;;;;;4.00;4.00;;;;;37.76;27.35;100551.53;4900362;28;45384;-77
2022/06/23 04:02:25;;;;;;;;;4.33;4.00;;;;;37.65;27.77;100544.28;4899672;29;45395;-76
2022/06/23 04:04:57;;;;;;;;;3.67;3.00;;;;;37.49;27.71;100532.97;4900744;28;45410;-76
2022/06/23 04:07:28;;;;;;;;;4.33;3.00;;;;;37.60;27.51;100549.41;4915712;28;45259;-76
2022/06/23 04:10:03;;;;;;;;;4.00;4.00;;;;;37.53;27.84;100535.28;4900720;29;45467;-77
2022/06/23 04:12:30;;;;;;;;;4.00;4.00;;;;;37.49;27.76;100544.91;4900336;29;45542;-76
2022/06/23 04:15:05;;;;;;;;;3.00;3.00;;;;;37.29;27.68;100532.19;4900778;28;45583;-77
2022/06/23 04:17:58;;;;;;;;;6.00;3.33;;;;;37.35;27.72;100557.34;4898779;29;46385;-78
2022/06/23 04:20:40;;;;;;;;;4.33;4.00;;;;;37.43;27.74;100545.53;4900031;28;46179;-67
2022/06/23 04:23:17;;;;;;;;;4.00;4.00;;;;;37.54;28.35;100537.03;4900277;28;45395;-67
2022/06/23 04:25:48;;;;;;;;;5.00;4.00;;;;;37.76;27.68;100554.28;4900958;29;45446;-67
2022/06/23 04:28:23;;;;;;;;;4.33;4.33;;;;;37.85;27.40;100550.63;4900967;28;45475;-67
2022/06/23 04:30:49;;;;;;;;;4.67;3.00;;;;;37.90;27.62;100547.38;4900506;29;45506;-67
2022/06/23 04:33:21;;;;;;;;;2.33;2.33;;;;;37.92;27.69;100540.66;4902706;28;45439;-67
2022/06/23 04:35:59;;;;;;;;;3.00;3.00;;;;;37.98;27.31;100543.84;4907044;28;45390;-67
2022/06/23 04:38:33;;;;;;;;;3.00;3.00;;;;;37.95;27.21;100553.34;4916706;28;45508;-67
2022/06/23 04:41:11;;;;;;;;;3.67;3.33;;;;;37.88;26.90;100554.97;4913645;28;45445;-67
2022/06/23 04:43:39;;;;;;;;;4.33;3.00;;;;;37.64;27.74;100561.00;4888116;28;45457;-67
2022/06/23 04:46:29;;;;;;;;;3.00;3.00;;;;;37.60;27.86;100560.47;4909411;28;45566;-68
2022/06/23 04:48:59;;;;;;;;;3.33;3.33;;;;;37.36;27.48;100555.47;4917400;28;45476;-67
2022/06/23 04:51:36;;;;;;;;;2.00;2.00;;;;;37.29;28.02;100562.63;4919428;28;47160;-67
2022/06/23 04:54:26;;;;;;;;;3.00;3.00;;;;;37.17;27.49;100553.56;4919280;28;45438;-66
2022/06/23 04:57:01;;;;;;;;;5.00;4.00;;;;;37.24;27.61;100568.53;4888618;28;45489;-67
2022/06/23 04:59:43;;;;;;;;;4.00;3.00;;;;;37.35;27.95;100570.31;4896047;29;45481;-66
2022/06/23 05:02:19;;;;;;;;;3.00;3.00;;;;;37.41;27.43;100570.59;4880610;29;45263;-67
2022/06/23 05:04:53;;;;;;;;;3.67;2.00;;;;;37.37;27.47;100557.19;4881248;29;45571;-67
2022/06/23 05:07:25;;;;;;;;;5.00;3.00;;;;;37.47;27.75;100568.22;4894815;29;45486;-66
2022/06/23 05:09:57;;;;;;;;;4.67;3.67;;;;;37.39;27.56;100571.75;4898733;29;45617;-66
2022/06/23 05:12:33;;;;;;;;;1.33;1.33;;;;;37.38;27.36;100570.00;4889009;29;46513;-66
2022/06/23 05:15:21;;;;;;;;;5.00;4.00;;;;;37.39;27.35;100577.28;4899420;29;46041;-67
2022/06/23 05:17:58;;;;;;;;;6.33;4.00;;;;;37.36;27.74;100583.13;4897835;29;45422;-68
2022/06/23 05:20:46;;;;;;;;;6.00;4.00;;;;;37.37;27.02;100571.00;4900079;28;45444;-67
2022/06/23 05:23:27;;;;;;;;;3.00;2.00;;;;;37.18;27.83;100581.09;4880943;29;45345;-68
2022/06/23 05:25:56;;;;;;;;;4.00;4.00;;;;;37.27;28.22;100586.75;4897709;29;45325;-66
2022/06/23 05:28:31;;;;;;;;;5.33;4.00;;;;;37.38;28.15;100581.94;4897919;29;45370;-68
2022/06/23 05:31:09;;;;;;;;;6.00;5.00;;;;;37.55;27.39;100572.00;4899012;28;45360;-74
2022/06/23 05:33:37;;;;;;;;;4.00;4.00;;;;;37.51;27.30;100584.41;4897660;28;45527;-68
2022/06/23 05:36:17;;;;;;;;;6.33;6.33;;;;;37.52;27.62;100566.75;4880900;29;45324;-69
2022/06/23 05:38:48;;;;;;;;;6.33;4.00;;;;;37.71;26.84;100576.88;4892993;29;45428;-69
2022/06/23 05:41:26;;;;;;;;;5.67;3.00;;;;;37.82;26.76;100567.53;4897781;29;45538;-68
2022/06/23 05:43:57;;;;;;;;;5.00;5.00;;;;;37.87;26.69;100559.63;4899477;28;45407;-68
2022/06/23 05:46:26;;;;;;;;;4.67;4.67;;;;;37.94;26.46;100559.88;4898716;28;45435;-67
2022/06/23 05:48:56;;;;;;;;;6.00;6.00;;;;;37.80;27.30;100546.56;4900952;28;45362;-68
2022/06/23 05:51:31;;;;;;;;;6.33;5.33;;;;;37.85;26.74;100561.69;4906049;28;45411;-68
2022/06/23 05:54:07;;;;;;;;;5.00;5.00;;;;;37.96;26.84;100565.28;4907975;28;45519;-69
2022/06/23 05:56:56;;;;;;;;;7.00;3.67;;;;;37.95;27.11;100577.38;4907982;28;45451;-68
2022/06/23 05:59:57;;;;;;;;;5.00;5.00;;;;;37.96;26.93;100568.91;4903072;28;45550;-68
2022/06/23 06:02:36;;;;;;;;;7.00;6.00;;;;;37.97;26.56;100559.56;4903097;28;45442;-69
2022/06/23 06:05:03;;;;;;;;;6.00;6.00;;;;;38.04;26.14;100574.53;4878477;29;48629;-67
2022/06/23 06:07:34;;;;;;;;;6.00;6.00;;;;;37.83;26.28;100585.88;4885597;29;45420;-67
2022/06/23 06:10:03;;;;;;;;;5.00;5.00;;;;;37.68;26.61;100581.84;4898312;28;45414;-67
2022/06/23 06:12:41;;;;;;;;;4.00;4.00;;;;;37.68;26.16;100587.38;4898739;28;45510;-68
2022/06/23 06:15:06;;;;;;;;;8.00;6.00;;;;;37.67;26.63;100580.13;4897788;28;45367;-68
2022/06/23 06:17:34;;;;;;;;;5.00;5.00;;;;;37.70;26.57;100577.03;4898486;28;45340;-67
2022/06/23 06:20:05;;;;;;;;;7.00;5.67;;;;;37.62;25.83;100575.00;4898307;28;45414;-67
2022/06/23 06:22:49;;;;;;;;;7.67;5.67;;;;;37.68;26.28;100581.84;4898690;28;45388;-67
2022/06/23 06:25:32;;;;;;;;;5.67;5.33;;;;;37.63;25.88;100579.53;4896510;29;47625;-68
2022/06/23 06:28:08;;;;;;;;;7.00;7.00;;;;;37.59;25.95;100555.94;4897596;28;45386;-67
2022/06/23 06:30:38;;;;;;;;;8.00;6.00;;;;;37.60;26.12;100568.78;4898558;28;45450;-68
2022/06/23 06:33:04;;;;;;;;;7.33;5.67;;;;;37.52;26.40;100572.28;4898380;28;45373;-68
2022/06/23 06:35:41;;;;;;;;;9.67;7.00;;;;;37.68;25.65;100577.19;4881367;29;45393;-67
2022/06/23 06:38:12;;;;;;;;;7.00;7.00;;;;;37.55;26.40;100573.88;4889196;29;46239;-67
2022/06/23 06:40:39;;;;;;;;;6.00;6.00;;;;;37.62;25.89;100574.16;4898049;28;45482;-67
2022/06/23 06:43:08;;;;;;;;;9.00;7.67;;;;;37.70;26.21;100580.66;4897877;28;45612;-68
2022/06/23 06:45:36;;;;;;;;;6.67;6.00;;;;;37.85;26.06;100578.31;4897979;28;45549;-67
2022/06/23 06:48:04;;;;;;;;;8.00;8.00;;;;;37.88;26.14;100572.47;4897876;28;45436;-67
2022/06/23 06:50:35;;;;;;;;;8.67;7.00;;;;;37.88;26.54;100582.69;4888135;29;45507;-68
2022/06/23 06:53:10;;;;;;;;;8.67;8.00;;;;;37.86;25.44;100570.88;4879723;29;45404;-68
2022/06/23 06:55:41;;;;;;;;;8.33;7.33;;;;;37.82;25.81;100591.56;4893960;29;46489;-68
2022/06/23 06:58:16;;;;;;;;;9.00;8.00;;;;;37.80;25.36;100590.88;4879586;29;45791;-68
2022/06/23 07:00:56;;;;;;;;;6.00;6.00;;;;;37.63;26.28;100581.44;4900081;29;45455;-68
2022/06/23 07:03:25;;;;;;;;;9.00;7.00;;;;;37.67;25.54;100585.66;4901991;28;45368;-68
2022/06/23 07:06:04;;;;;;;;;8.00;7.00;;;;;37.77;25.45;100586.50;4889954;28;46859;-68
2022/06/23 07:08:39;;;;;;;;;6.33;6.33;;;;;37.74;25.89;100584.00;4910276;28;45569;-67
2022/06/23 07:11:15;;;;;;;;;9.67;6.33;;;;;37.79;25.28;100589.13;4909661;28;45466;-68
2022/06/23 07:13:46;;;;;;;;;11.00;7.67;;;;;37.72;25.53;100578.63;4909438;28;45572;-67
2022/06/23 07:16:22;;;;;;;;;8.00;7.00;;;;;37.57;25.90;100586.53;4910574;28;46371;-67
2022/06/23 07:19:01;;;;;;;;;8.33;8.00;;;;;37.51;25.97;100578.84;4893655;28;45446;-67
2022/06/23 07:21:46;;;;;;;;;6.00;5.00;;;;;37.74;25.70;100586.78;4904361;28;45721;-67
2022/06/23 07:24:14;;;;;;;;;7.67;6.00;;;;;37.64;25.28;100599.78;4908357;28;45442;-68
2022/06/23 07:26:45;;;;;;;;;6.00;6.00;;;;;37.70;25.01;100599.19;4905529;28;46353;-67
2022/06/23 07:29:40;;;;;;;;;5.00;5.00;;;;;37.54;25.70;100606.22;4906289;28;45498;-68
2022/06/23 07:32:16;;;;;;;;;6.00;6.00;;;;;37.30;25.55;100600.31;4901634;29;45462;-67
2022/06/23 07:34:49;;;;;;;;;7.00;7.00;;;;;37.50;25.18;100602.00;4888878;28;45514;-67
2022/06/23 07:37:31;;;;;;;;;8.33;7.00;;;;;37.72;25.49;100608.19;4893757;28;45364;-67
2022/06/23 07:40:03;;;;;;;;;6.00;6.00;;;;;37.67;25.30;100610.56;4891319;29;45458;-67
2022/06/23 07:42:56;;;;;;;;;6.00;6.00;;;;;37.79;24.75;100612.13;4903767;28;45474;-67
2022/06/23 07:46:00;;;;;;;;;6.00;6.00;;;;;38.06;25.29;100608.53;4901552;28;45542;-68
2022/06/23 07:48:29;;;;;;;;;7.00;6.00;;;;;38.08;24.26;100600.91;4897224;28;45482;-69
2022/06/23 07:50:56;;;;;;;;;7.00;6.33;;;;;38.19;24.92;100610.06;4895583;29;45470;-69
2022/06/23 07:53:25;;;;;;;;;9.67;7.00;;;;;38.13;24.25;100596.81;4894616;28;45786;-69
2022/06/23 07:55:51;;;;;;;;;9.67;8.00;;;;;38.20;24.91;100600.69;4888696;28;45531;-69
2022/06/23 07:58:22;;;;;;;;;7.67;7.67;;;;;38.07;24.48;100609.38;4889013;29;45411;-69
2022/06/23 08:00:53;;;;;;;;;10.00;8.00;;;;;37.96;24.46;100556.97;4893031;29;45534;-69
2022/06/23 08:03:27;;;;;;;;;7.00;5.33;;;;;38.25;24.91;100602.00;4893978;29;45335;-69
2022/06/23 08:05:59;;;;;;;;;8.00;7.33;;;;;38.24;24.96;100599.41;4890875;29;45368;-68
2022/06/23 08:08:32;;;;;;;;;8.67;7.33;;;;;38.41;24.33;100606.88;4892569;28;46700;-69
2022/06/23 08:14:00;;;;;;;;;8.33;7.67;;;;;38.62;24.91;100608.47;4892423;29;45614;-69
2022/06/23 08:19:27;;;;;;;;;8.00;8.00;;;;;38.76;24.66;100610.75;4891071;29;45357;-69
2022/06/23 08:21:59;;;;;;;;;7.00;7.00;;;;;38.84;24.75;100612.69;4894488;28;45784;-69
2022/06/23 08:24:25;;;;;;;;;7.00;7.00;;;;;38.83;24.61;100608.19;4891269;29;45472;-69
2022/06/23 08:26:57;;;;;;;;;9.67;9.00;;;;;38.89;24.23;100604.78;4896438;29;45448;-69
2022/06/23 08:29:27;;;;;;;;;7.33;7.33;;;;;39.00;24.10;100588.91;4892436;29;46696;-70
2022/06/23 08:31:53;;;;;;;;;5.00;5.00;;;;;38.92;24.08;100589.72;4889315;28;45447;-69
2022/06/23 08:34:18;;;;;;;;;10.00;7.67;;;;;38.60;24.51;100597.53;4892901;29;45542;-69
2022/06/23 08:36:43;;;;;;;;;11.33;10.00;;;;;38.56;24.24;100601.66;4899856;29;45603;-69
2022/06/23 08:39:20;;;;;;;;;6.33;6.00;;;;;38.50;24.69;100605.06;4898515;29;45388;-69
2022/06/23 08:42:17;;;;;;;;;8.67;8.00;;;;;38.63;24.15;100603.81;4899017;28;45513;-70
2022/06/23 08:45:01;;;;;;;;;7.00;7.00;;;;;38.60;24.10;100558.72;4889434;29;45549;-70
2022/06/23 08:47:35;;;;;;;;;8.00;7.00;;;;;38.71;23.93;100601.16;4894628;28;45585;-69
2022/06/23 08:50:31;;;;;;;;;9.00;9.00;;;;;38.60;24.26;100593.91;4889770;29;45752;-69
2022/06/23 08:53:27;;;;;;;;;10.00;7.67;;;;;38.67;24.03;100606.09;4892088;28;45425;-69
2022/06/23 08:56:27;;;;;;;;;8.67;7.67;;;;;38.78;23.93;100602.25;4923700;28;45516;-69
2022/06/23 08:59:03;;;;;;;;;8.67;6.33;;;;;38.95;23.48;100597.72;4921110;28;45419;-69
2022/06/23 09:01:45;;;;;;;;;7.67;6.33;;;;;39.09;23.62;100590.75;4929571;28;46237;-69
2022/06/23 09:04:38;;;;;;;;;7.33;7.33;;;;;39.17;23.66;100601.03;4928592;28;45511;-69
2022/06/23 09:07:15;;;;;;;;;14.33;8.67;;;;;39.00;23.47;100563.94;4923158;28;45565;-69
2022/06/23 09:10:12;;;;;;;;;7.00;7.00;;;;;39.35;23.48;100599.09;4937787;28;45330;-69
2022/06/23 09:12:55;;;;;;;;;5.33;5.00;;;;;39.38;22.88;100587.69;4922401;28;46846;-70
2022/06/23 09:15:38;;;;;;;;;7.67;7.67;;;;;39.13;23.10;100600.47;4935422;28;46479;-69
2022/06/23 09:18:35;;;;;;;;;8.33;7.67;;;;;39.16;23.56;100600.19;4941466;28;45465;-69
2022/06/23 09:21:16;;;;;;;;;9.33;8.67;;;;;39.23;23.18;100595.72;4853551;29;45611;-69
2022/06/23 09:24:00;;;;;;;;;8.67;8.67;;;;;39.16;22.87;100582.66;4847247;29;45534;-69
2022/06/23 09:26:40;;;;;;;;;8.00;8.00;;;;;39.32;22.92;100593.00;4834686;29;45449;-68
2022/06/23 09:29:17;;;;;;;;;10.00;9.00;;;;;39.40;23.05;100595.84;4853071;29;45534;-70
2022/06/23 09:32:06;;;;;;;;;9.00;9.00;;;;;39.52;23.19;100593.66;4853589;29;45460;-69
2022/06/23 09:34:37;;;;;;;;;10.67;10.67;;;;;39.66;23.04;100595.84;4834660;29;46132;-69
2022/06/23 09:37:24;;;;;;;;;10.67;8.33;;;;;39.68;22.56;100599.34;4839528;29;45490;-69
2022/06/23 09:40:07;;;;;;;;;8.33;8.33;;;;;39.70;22.68;100588.91;4839624;29;45592;-70
2022/06/23 09:43:00;;;;;;;;;11.00;9.67;;;;;39.70;22.69;100563.06;4819068;29;45535;-70
2022/06/23 09:45:56;;;;;;;;;6.67;6.67;;;;;39.84;21.99;100568.00;4832452;29;45716;-68
2022/06/23 09:48:43;;;;;;;;;8.00;7.00;;;;;40.04;22.74;100589.97;4834499;29;45954;-76
2022/06/23 09:51:27;;;;;;;;;7.00;7.00;;;;;40.03;22.01;100605.78;4844568;29;45736;-77
2022/06/23 09:54:26;;;;;;;;;8.00;8.00;;;;;39.78;22.46;100593.66;4841873;29;45313;-77
2022/06/23 09:57:13;;;;;;;;;7.67;7.00;;;;;39.68;22.78;100584.56;4829413;29;45460;-77
2022/06/23 09:59:41;;;;;;;;;9.00;9.00;;;;;39.62;22.75;100594.44;4909804;28;45849;-77
2022/06/23 10:02:06;;;;;;;;;8.00;8.00;;;;;39.59;22.51;100589.22;4897053;28;45597;-77
2022/06/23 10:05:04;;;;;;;;;7.67;7.67;;;;;39.69;23.04;100586.31;4891012;28;45505;-77
2022/06/23 10:07:51;;;;;;;;;6.67;6.67;;;;;39.83;22.64;100591.25;4879490;29;45456;-77
2022/06/23 10:10:33;;;;;;;;;7.33;6.67;;;;;40.08;22.34;100585.81;4906455;28;45837;-77
2022/06/23 10:13:17;;;;;;;;;9.33;9.33;;;;;40.22;22.21;100590.72;4894205;29;45439;-77
2022/06/23 10:15:49;;;;;;;;;8.00;8.00;;;;;39.99;21.38;100551.56;4888374;29;45427;-77
2022/06/23 10:18:51;;;;;;;;;7.00;7.00;;;;;40.06;22.38;100585.13;4891419;28;46282;-77
2022/06/23 10:21:37;;;;;;;;;7.00;7.00;;;;;39.91;21.87;100582.94;4882385;29;45511;-77
2022/06/23 10:24:29;;;;;;;;;9.00;9.00;;;;;39.84;21.59;100576.31;4892735;29;45423;-77
2022/06/23 10:27:10;;;;;;;;;8.67;7.00;;;;;39.90;22.08;100586.78;4892412;28;45504;-77
2022/06/23 10:29:53;;;;;;;;;8.00;8.00;;;;;39.97;22.40;100585.06;4887173;29;46403;-77
2022/06/23 10:32:53;;;;;;;;;12.33;9.33;;;;;39.89;22.31;100582.25;4880992;29;45459;-77
2022/06/23 10:35:47;;;;;;;;;8.33;8.33;;;;;39.99;21.97;100570.13;4907743;28;45425;-77
2022/06/23 10:38:21;;;;;;;;;7.67;7.67;;;;;40.07;22.34;100584.97;4879549;29;45357;-77
2022/06/23 10:41:21;;;;;;;;;8.67;7.67;;;;;40.10;22.18;100569.84;4887595;29;45582;-77
2022/06/23 10:44:06;;;;;;;;;10.67;9.00;;;;;40.29;22.14;100586.22;4884475;29;45349;-77
2022/06/23 10:46:36;;;;;;;;;9.00;7.00;;;;;40.43;21.60;100569.94;4885988;28;45486;-77
2022/06/23 10:49:16;;;;;;;;;8.00;6.67;;;;;40.38;21.36;100577.91;4884226;28;45602;-77
2022/06/23 10:52:13;;;;;;;;;9.33;8.00;;;;;40.65;21.57;100579.56;4888045;29;45537;-77
2022/06/23 10:55:22;;;;;;;;;7.00;7.00;;;;;40.93;21.30;100580.13;4891984;29;45435;-77
2022/06/23 10:58:03;;;;;;;;;6.33;6.33;;;;;40.86;21.46;100576.28;4891427;29;45402;-77
2022/06/23 11:01:10;;;;;;;;;7.00;7.00;;;;;40.89;21.06;100566.69;4894579;28;45987;-77
2022/06/23 11:04:13;;;;;;;;;9.00;7.67;;;;;41.00;20.97;100566.41;4902292;28;48422;-75
2022/06/23 11:07:15;;;;;;;;;7.67;7.33;;;;;41.22;21.01;100581.47;4838780;29;45565;-75
2022/06/23 11:09:41;;;;;;;;;7.33;7.33;;;;;41.24;20.67;100571.06;4837087;29;45524;-75
2022/06/23 11:12:37;;;;;;;;;9.00;8.00;;;;;41.40;21.04;100572.09;4839551;29;45527;-75
2022/06/23 11:15:32;;;;;;;;;9.33;9.33;;;;;41.64;20.62;100572.00;4783822;29;45543;-75
2022/06/23 11:18:22;;;;;;;;;6.67;6.67;;;;;41.63;20.49;100566.63;4777300;29;45718;-75
2022/06/23 11:21:15;;;;;;;;;8.33;8.33;;;;;41.72;20.37;100568.34;4784387;29;45439;-75
2022/06/23 11:24:09;;;;;;;;;6.00;6.00;;;;;41.73;20.82;100560.84;4791906;29;45537;-75
2022/06/23 11:26:54;;;;;;;;;8.33;7.67;;;;;41.82;20.46;100557.88;4784091;29;46579;-75
2022/06/23 11:29:32;;;;;;;;;8.33;7.67;;;;;41.88;20.35;100542.34;4783805;29;45487;-75
2022/06/23 11:32:25;;;;;;;;;8.00;8.00;;;;;41.99;20.18;100557.81;4778745;29;45342;-75
2022/06/23 11:34:53;;;;;;;;;8.67;7.67;;;;;41.77;20.21;100551.97;4783032;29;45468;-75
2022/06/23 11:38:02;;;;;;;;;8.33;7.33;;;;;41.68;20.36;100553.03;4784524;29;46317;-76
2022/06/23 11:40:55;;;;;;;;;7.33;6.67;;;;;41.71;20.36;100557.38;4772697;29;45546;-75
2022/06/23 11:43:25;;;;;;;;;10.33;8.00;;;;;41.66;20.62;100539.28;4801438;29;45489;-75
2022/06/23 11:46:23;;;;;;;;;8.00;7.67;;;;;41.64;20.03;100534.94;4835990;29;45911;-75
2022/06/23 11:48:57;;;;;;;;;9.33;9.33;;;;;41.64;20.05;100546.09;4817235;29;46105;-75
2022/06/23 11:51:34;;;;;;;;;9.67;9.67;;;;;41.59;20.01;100549.41;4833592;29;45505;-74
2022/06/23 11:54:28;;;;;;;;;8.00;8.00;;;;;41.74;20.42;100549.53;4891270;28;45456;-74
2022/06/23 11:57:31;;;;;;;;;7.67;6.00;;;;;41.77;19.75;100539.94;4911406;28;45585;-75
2022/06/23 12:00:05;;;;;;;;;9.00;9.00;;;;;41.69;20.26;100514.91;4891596;29;46445;-75
2022/06/23 12:02:46;;;;;;;;;8.67;8.67;;;;;41.72;20.05;100515.41;4885660;29;45426;-75
2022/06/23 12:05:23;;;;;;;;;9.00;9.00;;;;;41.75;20.33;100522.56;4898674;29;45554;-75
2022/06/23 12:08:04;;;;;;;;;10.00;10.00;;;;;41.74;20.18;100518.03;4895640;28;45483;-76
2022/06/23 12:10:32;;;;;;;;;9.67;8.00;;;;;41.78;20.31;100513.84;4900640;28;47724;-77
2022/06/23 12:13:02;;;;;;;;;10.00;10.00;;;;;41.77;20.08;100489.78;4896711;29;45474;-76
2022/06/23 12:15:32;;;;;;;;;10.00;9.00;;;;;41.82;20.22;100495.72;4897718;28;45369;-76
2022/06/23 12:18:16;;;;;;;;;9.00;9.00;;;;;41.98;20.36;100490.03;4888718;28;45551;-79
2022/06/23 12:20:58;;;;;;;;;6.67;6.00;;;;;42.06;19.86;100491.06;4888449;28;45498;-78
2022/06/23 12:23:33;;;;;;;;;9.00;9.00;;;;;42.09;20.20;100499.06;4888223;29;45430;-78